Time;durP1;ratioP1;P1;durP2;ratioP2;P2;SDS_P1;SDS_P2;PMS_P1;PMS_P2;Temp;Humidity;BMP_temperature;BMP_pressure;BME280_temperature;BME280_humidity;BME280_pressure;Samples;Min_cycle;Max_cycle;Signal;HPM_P1;HPM_P2
2022/11/19 00:01:23;;;;;;;3.00;2.70;;;21.40;44.40;;;;;;5036871;28;20582;-58
2022/11/19 00:03:49;;;;;;;3.28;2.97;;;21.40;44.20;;;;;;5053594;28;20476;-58
2022/11/19 00:06:17;;;;;;;3.38;3.08;;;21.40;44.20;;;;;;5053200;28;20039;-58
2022/11/19 00:08:43;;;;;;;3.08;2.83;;;21.30;44.10;;;;;;5051856;28;20426;-56
2022/11/19 00:11:11;;;;;;;3.92;3.63;;;21.30;44.00;;;;;;5049413;28;20037;-59
2022/11/19 00:13:38;;;;;;;3.08;2.88;;;21.30;44.00;;;;;;5051612;28;20132;-57
2022/11/19 00:16:07;;;;;;;3.70;3.40;;;21.30;44.00;;;;;;5049941;28;20090;-59
2022/11/19 00:18:32;;;;;;;2.90;2.70;;;21.30;43.90;;;;;;5053078;28;20598;-58
2022/11/19 00:21:09;;;;;;;3.40;3.13;;;21.20;43.90;;;;;;5052590;28;20079;-58
2022/11/19 00:23:36;;;;;;;3.67;3.38;;;21.20;43.80;;;;;;5052389;28;20056;-58
2022/11/19 00:26:11;;;;;;;3.22;2.97;;;21.20;43.80;;;;;;5049357;28;20036;-58
2022/11/19 00:28:37;;;;;;;2.95;2.75;;;21.20;43.60;;;;;;5051250;28;20059;-56
2022/11/19 00:31:08;;;;;;;3.70;3.40;;;21.10;43.70;;;;;;5051567;28;20536;-58
2022/11/19 00:33:34;;;;;;;2.97;2.72;;;21.10;43.60;;;;;;5040080;28;20041;-58
2022/11/19 00:36:00;;;;;;;2.95;2.75;;;21.10;43.50;;;;;;5060931;28;20039;-57
2022/11/19 00:38:27;;;;;;;2.90;2.70;;;21.10;43.50;;;;;;5055774;28;20040;-57
2022/11/19 00:40:53;;;;;;;2.88;2.67;;;21.10;43.50;;;;;;5053037;28;20040;-58
2022/11/19 00:46:03;;;;;;;2.90;2.70;;;21.10;43.40;;;;;;5054507;28;20487;-59
2022/11/19 00:48:29;;;;;;;3.03;2.83;;;21.10;43.40;;;;;;5054241;28;20037;-58
2022/11/19 00:50:54;;;;;;;3.00;2.80;;;21.00;43.40;;;;;;5056861;28;20293;-58
2022/11/19 00:53:20;;;;;;;3.38;3.08;;;21.00;43.30;;;;;;5055383;28;20088;-58
2022/11/19 00:55:45;;;;;;;3.22;3.03;;;21.00;43.30;;;;;;5055244;28;20135;-57
2022/11/19 00:58:11;;;;;;;2.75;2.55;;;21.00;43.20;;;;;;5055388;28;20040;-57
2022/11/19 01:00:37;;;;;;;2.92;2.72;;;20.90;43.30;;;;;;5056320;28;20475;-58
2022/11/19 01:03:03;;;;;;;2.78;2.58;;;20.90;43.20;;;;;;5055386;28;20029;-58
2022/11/19 01:05:29;;;;;;;2.83;2.63;;;20.90;43.20;;;;;;5053470;28;20052;-57
2022/11/19 01:07:55;;;;;;;3.13;2.67;;;20.90;43.20;;;;;;5055787;28;20483;-59
2022/11/19 01:10:20;;;;;;;2.90;2.70;;;20.90;43.10;;;;;;5051618;28;20041;-58
2022/11/19 01:15:30;;;;;;;2.75;2.53;;;20.90;43.10;;;;;;5053620;28;20478;-58
2022/11/19 01:17:56;;;;;;;3.45;3.13;;;20.80;43.40;;;;;;5055297;28;20033;-58
2022/11/19 01:20:21;;;;;;;3.13;2.90;;;20.80;43.00;;;;;;5054539;28;20056;-58
2022/11/19 01:22:47;;;;;;;2.65;2.45;;;20.80;43.00;;;;;;5057553;28;20044;-58
2022/11/19 01:25:13;;;;;;;2.90;2.65;;;20.80;43.00;;;;;;5053202;28;20102;-58
2022/11/19 01:27:39;;;;;;;2.90;2.70;;;20.80;43.00;;;;;;5039409;28;20135;-58
2022/11/19 01:30:06;;;;;;;2.63;2.42;;;20.80;43.70;;;;;;5055049;28;20092;-57
2022/11/19 01:32:31;;;;;;;2.90;2.67;;;20.80;42.90;;;;;;5038471;28;20078;-58
2022/11/19 01:34:57;;;;;;;2.78;2.58;;;20.70;42.90;;;;;;5052786;28;20112;-58
2022/11/19 01:37:23;;;;;;;3.00;2.80;;;20.70;42.80;;;;;;5053887;28;20128;-57
2022/11/19 01:39:49;;;;;;;3.05;2.85;;;20.70;42.80;;;;;;5036452;28;20185;-58
2022/11/19 01:42:49;;;;;;;2.88;2.60;;;20.70;42.80;;;;;;5054571;28;20539;-58
2022/11/19 01:45:38;;;;;;;2.80;2.60;;;20.70;42.40;;;;;;5038144;28;20048;-59
2022/11/19 01:48:14;;;;;;;2.53;2.33;;;20.70;42.40;;;;;;5054814;28;20531;-58
2022/11/19 01:51:15;;;;;;;2.50;2.30;;;20.60;42.60;;;;;;5055053;28;20368;-59
2022/11/19 01:53:44;;;;;;;2.50;2.30;;;20.60;42.30;;;;;;5053808;28;20052;-59
2022/11/19 01:56:09;;;;;;;2.45;2.25;;;20.60;42.70;;;;;;5054461;28;20032;-58
2022/11/19 01:58:42;;;;;;;2.28;2.08;;;20.50;42.60;;;;;;5053767;28;20160;-58
2022/11/19 02:01:09;;;;;;;2.83;2.55;;;20.50;42.50;;;;;;5052888;28;20047;-58
2022/11/19 02:03:37;;;;;;;2.47;2.28;;;20.50;42.60;;;;;;5053879;28;20669;-59
2022/11/19 02:06:03;;;;;;;2.40;2.20;;;20.50;42.50;;;;;;5054262;28;20051;-58
2022/11/19 02:08:43;;;;;;;2.70;2.50;;;20.50;42.50;;;;;;5054169;28;20041;-57
2022/11/19 02:11:46;;;;;;;2.13;2.03;;;20.50;42.20;;;;;;5052989;28;20040;-57
2022/11/19 02:14:44;;;;;;;2.50;2.30;;;20.50;42.10;;;;;;5051360;28;20080;-58
2022/11/19 02:17:15;;;;;;;2.10;2.00;;;20.50;42.40;;;;;;5053293;28;20468;-59
2022/11/19 02:20:19;;;;;;;2.45;2.25;;;20.50;42.50;;;;;;5052537;28;20032;-56
2022/11/19 02:22:57;;;;;;;2.20;2.10;;;20.50;42.00;;;;;;5026075;28;20114;-58
2022/11/19 02:26:04;;;;;;;2.05;1.95;;;20.50;42.30;;;;;;5053286;28;20127;-58
2022/11/19 02:28:49;;;;;;;2.30;2.10;;;20.40;42.00;;;;;;5052361;28;20041;-58
2022/11/19 02:31:27;;;;;;;2.22;2.08;;;20.40;42.00;;;;;;5052400;28;20024;-57
2022/11/19 02:34:01;;;;;;;2.33;2.13;;;20.40;42.10;;;;;;5054290;28;20052;-57
2022/11/19 02:36:35;;;;;;;2.30;2.20;;;20.30;42.30;;;;;;5055383;28;20049;-58
2022/11/19 02:39:14;;;;;;;2.00;1.90;;;20.40;42.30;;;;;;5053064;28;20047;-58
2022/11/19 02:42:08;;;;;;;2.75;2.55;;;20.40;42.10;;;;;;5054865;28;20033;-58
2022/11/19 02:44:57;;;;;;;2.25;2.05;;;20.40;42.00;;;;;;5055738;28;20056;-58
2022/11/19 02:47:49;;;;;;;2.33;2.13;;;20.40;42.10;;;;;;5054021;28;20037;-58
2022/11/19 02:50:34;;;;;;;2.40;2.20;;;20.30;41.70;;;;;;5054801;28;20033;-58
2022/11/19 02:53:02;;;;;;;1.70;1.60;;;20.30;42.00;;;;;;5069594;28;20809;-58
2022/11/19 02:55:28;;;;;;;2.20;2.08;;;20.30;42.10;;;;;;5036270;28;20040;-58
2022/11/19 02:57:59;;;;;;;2.20;2.00;;;20.30;42.00;;;;;;5050940;28;20036;-57
2022/11/19 03:06:22;;;;;;;2.13;2.03;;;20.30;41.90;;;;;;5056226;28;20056;-58
2022/11/19 03:08:48;;;;;;;2.13;2.03;;;20.20;41.40;;;;;;5055020;28;20048;-58
2022/11/19 03:11:26;;;;;;;1.95;1.85;;;20.20;41.80;;;;;;5035354;28;20502;-57
2022/11/19 03:17:15;;;;;;;2.15;1.92;;;20.20;41.70;;;;;;5054485;28;20049;-57
2022/11/19 03:20:19;;;;;;;1.92;1.83;;;20.20;41.70;;;;;;5042639;28;20040;-58
2022/11/19 03:23:16;;;;;;;2.00;1.90;;;20.20;41.40;;;;;;5054055;28;20071;-57
2022/11/19 03:25:48;;;;;;;2.10;2.00;;;20.20;41.80;;;;;;5036810;28;20099;-58
2022/11/19 03:28:19;;;;;;;2.13;1.70;;;20.10;41.80;;;;;;5053490;28;20460;-57
2022/11/19 03:30:46;;;;;;;1.77;1.67;;;20.10;41.70;;;;;;5034813;28;20079;-58
2022/11/19 03:33:22;;;;;;;2.10;1.95;;;20.10;41.60;;;;;;5036768;28;20499;-57
2022/11/19 03:35:52;;;;;;;2.10;1.90;;;20.10;41.40;;;;;;5052123;28;20451;-59
2022/11/19 03:38:25;;;;;;;2.00;1.90;;;20.10;41.50;;;;;;5053662;28;20514;-57
2022/11/19 03:40:54;;;;;;;1.95;1.83;;;20.10;41.40;;;;;;5050520;28;20503;-58
2022/11/19 03:43:23;;;;;;;1.98;1.88;;;20.10;41.40;;;;;;5054720;28;20143;-57
2022/11/19 03:45:50;;;;;;;2.40;2.20;;;20.10;41.40;;;;;;5059358;28;20076;-59
2022/11/19 03:48:19;;;;;;;1.95;1.85;;;20.10;41.30;;;;;;5053229;28;20049;-59
2022/11/19 03:50:45;;;;;;;2.17;1.98;;;20.10;41.30;;;;;;5052687;28;20080;-58
2022/11/19 03:53:11;;;;;;;2.42;2.22;;;20.00;41.20;;;;;;5055889;28;20159;-58
2022/11/19 03:55:43;;;;;;;2.33;2.00;;;20.00;41.10;;;;;;5036709;28;20164;-58
2022/11/19 03:58:10;;;;;;;2.28;1.65;;;20.00;41.10;;;;;;5067285;28;20029;-57
2022/11/19 04:00:36;;;;;;;2.10;1.90;;;20.00;41.10;;;;;;5052429;28;20045;-58
2022/11/19 04:03:02;;;;;;;2.28;2.08;;;20.00;41.10;;;;;;5035477;28;20424;-58
2022/11/19 04:05:28;;;;;;;2.25;2.05;;;20.00;41.10;;;;;;5050791;28;20053;-57
2022/11/19 04:07:54;;;;;;;2.00;1.90;;;20.00;41.10;;;;;;5048689;28;20498;-58
2022/11/19 04:10:19;;;;;;;1.98;1.88;;;20.00;41.00;;;;;;5049241;28;20036;-58
2022/11/19 04:12:45;;;;;;;2.08;1.90;;;19.90;40.90;;;;;;5048439;28;20052;-57
2022/11/19 04:15:12;;;;;;;2.40;2.20;;;20.00;41.00;;;;;;5040148;28;20040;-58
2022/11/19 04:17:37;;;;;;;2.00;1.90;;;19.90;40.90;;;;;;5051613;28;20135;-59
2022/11/19 04:20:05;;;;;;;2.03;1.92;;;19.90;40.90;;;;;;5050837;28;20124;-58
2022/11/19 04:22:30;;;;;;;2.08;1.98;;;19.90;40.90;;;;;;5052801;28;20036;-57
2022/11/19 04:24:56;;;;;;;2.08;1.95;;;19.90;40.80;;;;;;5059299;28;20047;-57
2022/11/19 04:27:22;;;;;;;2.28;2.03;;;19.90;40.80;;;;;;5052793;28;20045;-59
2022/11/19 04:29:47;;;;;;;2.00;1.90;;;19.90;40.80;;;;;;5058555;28;20294;-58
2022/11/19 04:32:13;;;;;;;2.25;1.90;;;19.90;40.80;;;;;;5050605;28;20123;-58
2022/11/19 04:34:38;;;;;;;2.10;1.90;;;19.90;40.70;;;;;;5051828;28;20044;-59
2022/11/19 04:37:04;;;;;;;2.00;1.80;;;19.90;40.80;;;;;;5049628;28;20044;-58
2022/11/19 04:39:30;;;;;;;1.80;1.70;;;19.80;40.60;;;;;;5050041;28;20048;-57
2022/11/19 04:41:55;;;;;;;2.10;1.95;;;19.80;40.60;;;;;;5050113;28;20044;-58
2022/11/19 04:44:21;;;;;;;1.90;1.80;;;19.80;40.60;;;;;;5050789;28;20052;-57
2022/11/19 04:46:46;;;;;;;2.00;1.90;;;19.80;40.60;;;;;;5052609;28;20063;-59
2022/11/19 04:49:12;;;;;;;2.40;2.20;;;19.80;40.50;;;;;;5052757;28;20037;-59
2022/11/19 04:51:38;;;;;;;2.00;1.90;;;19.80;40.50;;;;;;5051119;28;20556;-58
2022/11/19 04:54:04;;;;;;;1.70;1.60;;;19.80;40.40;;;;;;5051733;28;20094;-57
2022/11/19 04:56:29;;;;;;;2.10;1.92;;;19.80;40.40;;;;;;5050000;28;20033;-57
2022/11/19 04:58:55;;;;;;;2.50;2.30;;;19.70;40.40;;;;;;5050114;28;20033;-58
2022/11/19 05:01:21;;;;;;;2.53;2.33;;;19.70;40.40;;;;;;5051298;28;20045;-57
2022/11/19 05:03:47;;;;;;;2.10;2.00;;;19.70;40.40;;;;;;5050739;28;20577;-57
2022/11/19 05:06:12;;;;;;;2.08;1.88;;;19.70;40.30;;;;;;5033278;28;20068;-58
2022/11/19 05:08:38;;;;;;;2.30;2.10;;;19.70;40.30;;;;;;5050561;28;20040;-59
2022/11/19 05:11:04;;;;;;;2.58;2.30;;;19.70;40.30;;;;;;5034211;28;20667;-58
2022/11/19 05:13:30;;;;;;;2.20;2.00;;;19.70;40.30;;;;;;5051843;28;20044;-57
2022/11/19 05:15:55;;;;;;;2.38;2.17;;;19.70;40.30;;;;;;5050878;28;20063;-58
2022/11/19 05:18:22;;;;;;;2.13;2.03;;;19.70;40.30;;;;;;5050422;28;20094;-58
2022/11/19 05:20:48;;;;;;;2.20;2.00;;;19.70;40.30;;;;;;5053834;28;20037;-57
2022/11/19 05:23:14;;;;;;;2.08;1.90;;;19.70;40.20;;;;;;5055322;28;20044;-57
2022/11/19 05:25:39;;;;;;;2.53;2.33;;;19.70;40.20;;;;;;5053031;28;20041;-57
2022/11/19 05:28:05;;;;;;;2.00;1.90;;;19.60;40.20;;;;;;5053306;28;20032;-58
2022/11/19 05:30:31;;;;;;;2.13;2.00;;;19.70;40.20;;;;;;5055922;28;20530;-58
2022/11/19 05:32:56;;;;;;;1.98;1.88;;;19.70;40.20;;;;;;5053990;28;20033;-58
2022/11/19 05:35:22;;;;;;;2.00;1.90;;;19.60;40.10;;;;;;5055803;28;20043;-58
2022/11/19 05:37:49;;;;;;;2.17;1.98;;;19.60;40.10;;;;;;5055541;28;20490;-58
2022/11/19 05:40:15;;;;;;;2.33;2.13;;;19.60;40.00;;;;;;5055832;28;20399;-58
2022/11/19 05:42:41;;;;;;;1.83;1.73;;;19.60;40.00;;;;;;5051506;28;20488;-58
2022/11/19 05:45:07;;;;;;;2.50;2.30;;;19.60;40.00;;;;;;5054245;28;20118;-58
2022/11/19 05:47:33;;;;;;;1.92;1.80;;;19.60;40.00;;;;;;5054228;28;20079;-59
2022/11/19 05:49:59;;;;;;;2.10;1.90;;;19.60;40.00;;;;;;5055419;28;20118;-58
2022/11/19 05:52:24;;;;;;;2.30;2.10;;;19.60;39.90;;;;;;5054508;28;20032;-59
2022/11/19 05:54:50;;;;;;;2.10;1.90;;;19.60;40.00;;;;;;5053564;28;20117;-59
2022/11/19 05:57:16;;;;;;;2.10;2.00;;;19.50;39.90;;;;;;5054628;28;20074;-59
2022/11/19 05:59:41;;;;;;;2.00;1.90;;;19.50;40.00;;;;;;5036869;28;20033;-59
2022/11/19 06:02:07;;;;;;;2.10;2.00;;;19.50;39.90;;;;;;5061404;28;20028;-58
2022/11/19 06:04:32;;;;;;;2.00;1.90;;;19.50;39.80;;;;;;5053651;28;20120;-58
2022/11/19 06:06:58;;;;;;;2.03;1.88;;;19.50;39.90;;;;;;5055822;28;20127;-58
2022/11/19 06:09:24;;;;;;;2.10;1.90;;;19.50;39.90;;;;;;5056718;28;20131;-59
2022/11/19 06:11:49;;;;;;;1.83;1.73;;;19.40;39.80;;;;;;5053466;28;20032;-58
2022/11/19 06:14:21;;;;;;;1.90;1.80;;;19.50;39.80;;;;;;5055073;28;20044;-58
2022/11/19 06:16:52;;;;;;;2.10;2.00;;;19.40;39.70;;;;;;5055643;28;20360;-59
2022/11/19 06:19:18;;;;;;;1.80;1.70;;;19.40;39.70;;;;;;5039204;28;20490;-57
2022/11/19 06:21:44;;;;;;;2.17;2.08;;;19.40;39.70;;;;;;5053301;28;20070;-59
2022/11/19 06:24:11;;;;;;;2.45;2.25;;;19.40;39.70;;;;;;5053085;28;20037;-57
2022/11/19 06:26:38;;;;;;;2.00;1.90;;;19.40;39.60;;;;;;5053808;28;20044;-59
2022/11/19 06:29:04;;;;;;;1.88;1.77;;;19.40;39.60;;;;;;5052819;28;20040;-59
2022/11/19 06:31:30;;;;;;;2.10;2.00;;;19.40;39.70;;;;;;5052326;28;20048;-58
2022/11/19 06:33:56;;;;;;;2.97;1.92;;;19.40;39.70;;;;;;5052209;28;20044;-58
2022/11/19 06:36:22;;;;;;;1.80;1.70;;;19.40;39.60;;;;;;5055277;28;20070;-58
2022/11/19 06:38:48;;;;;;;3.08;2.30;;;19.40;39.60;;;;;;5054248;28;20093;-59
2022/11/19 06:41:13;;;;;;;2.20;2.10;;;19.40;39.60;;;;;;5052933;28;20048;-58
2022/11/19 06:43:39;;;;;;;2.42;2.22;;;19.40;39.60;;;;;;5033645;28;20051;-59
2022/11/19 06:46:05;;;;;;;2.80;2.33;;;19.30;39.50;;;;;;5053464;28;20108;-58
2022/11/19 06:48:31;;;;;;;2.50;2.30;;;19.30;39.50;;;;;;5036279;28;20033;-58
2022/11/19 06:50:57;;;;;;;2.88;2.13;;;19.30;39.50;;;;;;5055500;28;20047;-58
2022/11/19 06:53:22;;;;;;;2.10;2.00;;;19.30;39.50;;;;;;5053269;28;20053;-59
2022/11/19 06:55:58;;;;;;;2.30;2.10;;;19.30;39.40;;;;;;5052444;28;20487;-59
2022/11/19 06:58:24;;;;;;;2.10;1.98;;;19.30;39.30;;;;;;5051610;28;20045;-58
2022/11/19 07:00:50;;;;;;;2.75;2.55;;;19.30;39.40;;;;;;5053694;28;20380;-58
2022/11/19 07:03:15;;;;;;;2.75;2.55;;;19.30;39.40;;;;;;5055027;28;20343;-59
2022/11/19 07:05:41;;;;;;;2.33;2.13;;;19.30;39.40;;;;;;5054952;28;20028;-59
2022/11/19 07:08:07;;;;;;;2.20;2.00;;;19.30;39.40;;;;;;5052486;28;20060;-59
2022/11/19 07:10:33;;;;;;;2.88;2.50;;;19.30;39.40;;;;;;5050982;28;20491;-58
2022/11/19 07:12:59;;;;;;;2.40;2.20;;;19.20;39.30;;;;;;5052138;28;20076;-59
2022/11/19 07:15:25;;;;;;;2.55;2.35;;;19.30;39.40;;;;;;5053579;28;20044;-59
2022/11/19 07:17:51;;;;;;;2.33;2.13;;;19.20;39.30;;;;;;5051135;28;20040;-58
2022/11/19 07:20:16;;;;;;;3.55;2.30;;;19.30;39.30;;;;;;5052962;28;20029;-58
2022/11/19 07:22:42;;;;;;;2.45;2.35;;;19.20;39.30;;;;;;5052493;28;20025;-58
2022/11/19 07:25:11;;;;;;;2.70;2.50;;;19.20;39.20;;;;;;5052168;28;20048;-58
2022/11/19 07:27:37;;;;;;;2.50;2.30;;;19.20;39.10;;;;;;5059156;28;20706;-57
2022/11/19 07:30:05;;;;;;;2.58;2.38;;;19.20;39.20;;;;;;5051734;28;20048;-59
2022/11/19 07:32:30;;;;;;;2.72;2.53;;;19.20;39.20;;;;;;5052090;28;20407;-58
2022/11/19 07:34:56;;;;;;;2.65;2.40;;;19.20;39.10;;;;;;5053175;28;20040;-58
2022/11/19 07:37:22;;;;;;;2.50;2.30;;;19.20;39.10;;;;;;5052400;28;20076;-60
2022/11/19 07:39:48;;;;;;;2.50;2.30;;;19.20;39.10;;;;;;5047536;28;20044;-58
2022/11/19 07:44:57;;;;;;;2.85;2.65;;;19.10;39.10;;;;;;5049868;28;20443;-58
2022/11/19 07:47:23;;;;;;;4.95;3.40;;;19.10;39.00;;;;;;5050506;28;20044;-58
2022/11/19 07:49:48;;;;;;;3.55;2.42;;;19.10;39.00;;;;;;5049114;28;20384;-57
2022/11/19 07:52:14;;;;;;;3.55;2.47;;;19.10;39.30;;;;;;5051681;28;20712;-59
2022/11/19 07:54:40;;;;;;;4.47;2.45;;;19.40;39.40;;;;;;5046512;28;20584;-58
2022/11/19 07:57:06;;;;;;;3.20;2.40;;;19.80;38.90;;;;;;5050731;28;20048;-58
2022/11/19 07:59:31;;;;;;;5.38;2.50;;;20.40;38.30;;;;;;5050880;28;21003;-58
2022/11/19 08:01:57;;;;;;;3.20;2.25;;;20.90;37.60;;;;;;5055638;28;20051;-58
2022/11/19 08:04:23;;;;;;;2.42;2.08;;;21.30;36.90;;;;;;5049931;28;20044;-58
2022/11/19 08:06:48;;;;;;;2.92;2.20;;;21.50;36.40;;;;;;5052551;28;20051;-58
2022/11/19 08:09:14;;;;;;;2.53;2.10;;;21.60;36.40;;;;;;5050348;28;20037;-59
2022/11/19 08:11:40;;;;;;;2.13;1.92;;;21.60;36.40;;;;;;5053285;28;20526;-57
2022/11/19 08:14:05;;;;;;;3.28;2.13;;;21.60;36.50;;;;;;5049178;28;20060;-59
2022/11/19 08:19:17;;;;;;;3.72;2.20;;;21.60;36.60;;;;;;5049771;28;20528;-58
2022/11/19 08:21:46;;;;;;;3.47;1.90;;;21.50;36.70;;;;;;5049768;28;20515;-58
2022/11/19 08:24:13;;;;;;;3.22;2.33;;;21.50;36.90;;;;;;5040308;28;20043;-58
2022/11/19 08:26:39;;;;;;;3.30;2.40;;;21.40;37.10;;;;;;5050779;28;20923;-59
2022/11/19 08:29:06;;;;;;;5.43;2.58;;;21.30;37.20;;;;;;5050945;28;20046;-59
2022/11/19 08:31:32;;;;;;;6.38;2.50;;;21.20;37.20;;;;;;5057783;28;20472;-57
2022/11/19 08:33:59;;;;;;;3.08;2.40;;;21.20;37.30;;;;;;5048282;28;20060;-58
2022/11/19 08:36:24;;;;;;;8.05;2.63;;;21.10;37.40;;;;;;5049843;28;20036;-58
2022/11/19 08:38:50;;;;;;;3.88;2.40;;;21.10;37.60;;;;;;5050721;28;20566;-59
2022/11/19 08:44:01;;;;;;;2.30;2.10;;;21.10;37.60;;;;;;5050287;28;20055;-57
2022/11/19 08:46:27;;;;;;;3.17;2.28;;;21.10;37.70;;;;;;5048558;28;20049;-59
2022/11/19 08:48:53;;;;;;;3.60;2.47;;;21.10;37.50;;;;;;5050401;28;20495;-58
2022/11/19 08:51:18;;;;;;;5.65;2.55;;;21.10;37.60;;;;;;5053695;28;20530;-58
2022/11/19 08:53:44;;;;;;;3.50;2.30;;;21.10;37.60;;;;;;5052661;28;20066;-59
2022/11/19 08:56:10;;;;;;;3.47;2.90;;;21.10;37.60;;;;;;5051425;28;20044;-58
2022/11/19 08:58:35;;;;;;;6.35;3.10;;;21.10;37.70;;;;;;5052362;28;20095;-59
2022/11/19 09:01:12;;;;;;;4.68;2.72;;;21.10;37.70;;;;;;5054583;28;20039;-58
2022/11/19 09:03:38;;;;;;;2.45;2.17;;;21.10;37.60;;;;;;5052725;28;20053;-59
2022/11/19 09:06:04;;;;;;;6.50;2.40;;;21.10;38.50;;;;;;5053652;28;20454;-59
2022/11/19 09:08:30;;;;;;;2.78;2.45;;;21.10;37.70;;;;;;5053034;28;20038;-59
2022/11/19 09:10:56;;;;;;;5.60;2.38;;;21.10;37.70;;;;;;5054650;28;20052;-59
2022/11/19 09:13:22;;;;;;;4.05;2.58;;;21.10;37.70;;;;;;5054440;28;20071;-58
2022/11/19 09:15:48;;;;;;;4.53;2.35;;;21.10;37.70;;;;;;5054862;28;20091;-58
2022/11/19 09:18:14;;;;;;;4.30;2.35;;;21.10;37.70;;;;;;5055090;28;20029;-58
2022/11/19 09:20:39;;;;;;;5.22;2.63;;;21.20;37.80;;;;;;5054058;28;20499;-58
2022/11/19 09:23:05;;;;;;;3.65;2.28;;;21.20;37.90;;;;;;5052812;28;20521;-58
2022/11/19 09:25:32;;;;;;;2.80;2.47;;;21.20;38.10;;;;;;5053890;28;20041;-60
2022/11/19 09:27:58;;;;;;;8.20;2.25;;;21.20;38.30;;;;;;5052514;28;20048;-58
2022/11/19 09:30:23;;;;;;;4.90;2.42;;;21.20;38.30;;;;;;5054081;28;20450;-58
2022/11/19 09:32:49;;;;;;;6.72;2.70;;;21.20;38.50;;;;;;5059573;28;20033;-58
2022/11/19 09:35:15;;;;;;;3.05;2.33;;;21.20;38.60;;;;;;5052524;28;20506;-58
2022/11/19 09:37:40;;;;;;;2.55;2.25;;;21.20;38.60;;;;;;5054701;28;20810;-58
2022/11/19 09:40:08;;;;;;;6.40;2.22;;;21.20;38.80;;;;;;5055475;28;20036;-59
2022/11/19 09:43:07;;;;;;;3.92;2.30;;;21.20;39.40;;;;;;5055078;28;20464;-58
2022/11/19 09:45:54;;;;;;;4.03;2.35;;;21.20;38.60;;;;;;5051073;28;21310;-58
2022/11/19 09:48:34;;;;;;;2.70;2.50;;;21.20;38.60;;;;;;5053391;28;20518;-59
2022/11/19 09:51:22;;;;;;;3.42;2.17;;;21.20;38.60;;;;;;5050189;28;20091;-59
2022/11/19 09:53:53;;;;;;;4.28;2.35;;;21.20;38.40;;;;;;5055929;28;20044;-58
2022/11/19 09:56:37;;;;;;;2.78;2.20;;;21.20;38.50;;;;;;5053189;28;20124;-59
2022/11/19 09:59:26;;;;;;;2.72;2.20;;;21.20;38.40;;;;;;5053546;28;20387;-58
2022/11/19 10:01:52;;;;;;;3.15;2.30;;;21.20;38.50;;;;;;5044446;28;20495;-59
2022/11/19 10:04:22;;;;;;;4.85;2.20;;;21.20;38.60;;;;;;5052962;28;20364;-59
2022/11/19 10:07:12;;;;;;;3.78;1.90;;;21.20;38.70;;;;;;5052091;28;20888;-58
2022/11/19 10:09:50;;;;;;;3.50;2.38;;;21.20;38.50;;;;;;5037777;28;20041;-59
2022/11/19 10:12:46;;;;;;;2.22;2.03;;;21.30;38.60;;;;;;5052547;28;20040;-58
2022/11/19 10:16:02;;;;;;;4.10;2.33;;;21.20;38.40;;;;;;5049825;28;20067;-58
2022/11/19 10:18:30;;;;;;;11.13;2.40;;;21.20;38.20;;;;;;4984091;28;20117;-59
2022/11/19 10:21:16;;;;;;;4.97;2.35;;;21.20;38.50;;;;;;4984001;28;20148;-58
2022/11/19 10:23:52;;;;;;;4.22;1.92;;;21.30;38.40;;;;;;5039094;28;20509;-58
2022/11/19 10:26:25;;;;;;;4.00;2.08;;;21.20;38.40;;;;;;5052709;28;20628;-57
2022/11/19 10:28:55;;;;;;;3.17;2.10;;;21.30;38.40;;;;;;5040268;28;20379;-58
2022/11/19 10:31:33;;;;;;;6.60;2.55;;;21.30;38.40;;;;;;5054484;28;20131;-58
2022/11/19 10:34:05;;;;;;;2.00;1.90;;;21.30;38.20;;;;;;5049539;28;20041;-59
2022/11/19 10:36:44;;;;;;;5.72;1.80;;;21.20;38.10;;;;;;5049496;28;20037;-59
2022/11/19 10:39:32;;;;;;;9.32;2.50;;;21.30;38.00;;;;;;5056322;28;20055;-58
2022/11/19 10:42:17;;;;;;;5.10;2.28;;;21.20;37.90;;;;;;5054663;28;20086;-59
2022/11/19 10:44:58;;;;;;;7.80;2.60;;;21.20;38.00;;;;;;5053090;28;20037;-59
2022/11/19 10:48:04;;;;;;;6.13;2.10;;;21.20;38.00;;;;;;5052900;28;20052;-57
2022/11/19 10:50:30;;;;;;;5.00;1.65;;;21.20;37.90;;;;;;5054943;28;20044;-58
2022/11/19 10:53:00;;;;;;;4.07;2.10;;;21.20;38.00;;;;;;5053129;28;20089;-57
2022/11/19 10:55:38;;;;;;;3.75;2.28;;;21.20;38.10;;;;;;5050558;28;20037;-58
2022/11/19 10:58:09;;;;;;;3.35;2.40;;;21.20;38.10;;;;;;5051895;28;20040;-58
2022/11/19 11:00:37;;;;;;;2.55;1.90;;;21.20;38.10;;;;;;5054937;28;20111;-58
2022/11/19 11:03:05;;;;;;;2.70;1.85;;;21.20;38.00;;;;;;5052862;28;20127;-58
2022/11/19 11:05:51;;;;;;;3.92;2.00;;;21.30;38.00;;;;;;5052820;28;20040;-58
2022/11/19 11:08:16;;;;;;;3.67;1.90;;;21.20;38.00;;;;;;5060100;28;20079;-59
2022/11/19 11:10:45;;;;;;;8.15;2.30;;;21.30;38.00;;;;;;5052291;28;20464;-58
2022/11/19 11:16:14;;;;;;;6.20;2.08;;;21.20;37.90;;;;;;5038256;28;20053;-58
2022/11/19 11:18:40;;;;;;;3.53;1.40;;;21.20;38.10;;;;;;5057430;28;20086;-58
2022/11/19 11:21:37;;;;;;;7.07;2.10;;;21.30;38.50;;;;;;5053340;28;20040;-58
2022/11/19 11:24:04;;;;;;;2.15;1.63;;;21.30;38.50;;;;;;5052500;28;20036;-58
2022/11/19 11:26:32;;;;;;;5.63;1.95;;;21.30;38.60;;;;;;5054409;28;20047;-59
2022/11/19 11:29:04;;;;;;;3.53;2.05;;;21.30;38.70;;;;;;5051961;28;20487;-59
2022/11/19 11:31:32;;;;;;;3.15;1.90;;;21.30;38.60;;;;;;5053147;28;20113;-58
2022/11/19 11:34:01;;;;;;;2.65;2.05;;;21.30;38.70;;;;;;5052768;28;20039;-58
2022/11/19 11:36:29;;;;;;;4.75;2.42;;;21.30;38.70;;;;;;5035608;28;20063;-59
2022/11/19 11:38:58;;;;;;;3.40;1.58;;;21.40;38.80;;;;;;5042892;28;20112;-59
2022/11/19 11:41:33;;;;;;;2.47;1.80;;;21.40;38.80;;;;;;5051000;28;20102;-58
2022/11/19 11:44:16;;;;;;;4.38;2.20;;;21.30;38.40;;;;;;5052051;28;20044;-58
2022/11/19 11:46:51;;;;;;;2.60;1.75;;;21.40;38.40;;;;;;5052605;28;20041;-59
2022/11/19 11:49:35;;;;;;;4.72;1.70;;;21.50;38.20;;;;;;5060198;28;20048;-60
2022/11/19 11:52:31;;;;;;;6.82;2.00;;;21.60;38.30;;;;;;5054110;28;20475;-59
2022/11/19 11:55:23;;;;;;;3.60;1.80;;;21.70;38.30;;;;;;5050922;28;20041;-58
2022/11/19 11:57:54;;;;;;;4.15;2.10;;;21.80;38.20;;;;;;5053398;28;20131;-58
2022/11/19 12:00:28;;;;;;;3.97;2.05;;;21.80;38.10;;;;;;5049798;28;20094;-57
2022/11/19 12:03:12;;;;;;;3.83;1.80;;;21.80;38.00;;;;;;5052819;28;20106;-58
2022/11/19 12:05:59;;;;;;;16.02;2.25;;;21.80;37.90;;;;;;5052268;28;20495;-58
2022/11/19 12:08:33;;;;;;;4.30;1.83;;;21.80;37.80;;;;;;5050874;28;20036;-58
2022/11/19 12:11:19;;;;;;;4.60;1.80;;;21.90;37.90;;;;;;5048244;28;20079;-56
2022/11/19 12:14:00;;;;;;;3.97;1.90;;;21.90;37.60;;;;;;5054832;28;20064;-58
2022/11/19 12:16:45;;;;;;;;;;;21.90;37.50;;;;;;5050221;28;20075;-58
2022/11/19 12:19:16;;;;;;;6.70;1.67;;;21.90;37.30;;;;;;5053015;28;20046;-58
2022/11/19 12:21:50;;;;;;;6.30;1.77;;;21.90;37.60;;;;;;5056703;28;20025;-57
2022/11/19 12:24:18;;;;;;;4.18;1.77;;;21.90;37.40;;;;;;5035488;28;20109;-57
2022/11/19 12:27:05;;;;;;;4.07;1.92;;;21.90;37.20;;;;;;5048408;28;20041;-58
2022/11/19 12:30:05;;;;;;;4.90;1.55;;;21.90;36.90;;;;;;5052060;28;20076;-58
2022/11/19 12:32:34;;;;;;;7.15;1.67;;;21.90;36.90;;;;;;5054991;28;20074;-58
2022/11/19 12:35:33;;;;;;;5.88;1.60;;;21.90;37.20;;;;;;5055630;28;20376;-57
2022/11/19 12:38:15;;;;;;;18.02;2.10;;;22.00;37.00;;;;;;5061081;28;20037;-57
2022/11/19 12:41:03;;;;;;;4.75;1.58;;;22.00;37.00;;;;;;5054814;28;20111;-57
2022/11/19 12:43:58;;;;;;;2.50;1.65;;;22.00;36.90;;;;;;5055326;28;20082;-58
2022/11/19 12:46:48;;;;;;;2.40;1.30;;;22.00;36.60;;;;;;5054849;28;20045;-57
2022/11/19 12:49:49;;;;;;;1.40;1.30;;;22.00;36.40;;;;;;5045814;28;20391;-58
2022/11/19 12:52:34;;;;;;;2.92;1.23;;;22.00;36.30;;;;;;5055688;28;20040;-58
2022/11/19 12:55:26;;;;;;;3.80;2.00;;;22.00;36.60;;;;;;5063891;28;20091;-58
2022/11/19 12:57:51;;;;;;;5.15;1.60;;;22.00;36.40;;;;;;5056289;28;20036;-57
2022/11/19 13:00:20;;;;;;;2.53;1.50;;;22.00;36.40;;;;;;5058018;28;20438;-58
2022/11/19 13:03:20;;;;;;;1.42;1.20;;;22.00;36.40;;;;;;5055556;28;20049;-58
2022/11/19 13:06:06;;;;;;;1.20;1.10;;;22.10;35.90;;;;;;5055143;28;20036;-56
2022/11/19 13:08:47;;;;;;;1.80;1.60;;;22.10;36.00;;;;;;5055814;28;20047;-56
2022/11/19 13:11:35;;;;;;;1.70;1.48;;;22.10;36.10;;;;;;5053892;28;20139;-57
2022/11/19 13:14:11;;;;;;;1.98;1.60;;;22.10;35.80;;;;;;5055126;28;20590;-58
2022/11/19 13:16:38;;;;;;;2.15;1.50;;;22.10;36.00;;;;;;5054506;28;20182;-58
2022/11/19 13:19:24;;;;;;;2.25;1.40;;;22.10;35.90;;;;;;5056482;28;20048;-57
2022/11/19 13:21:57;;;;;;;1.48;1.30;;;22.10;35.70;;;;;;5052484;28;20115;-57
2022/11/19 13:24:32;;;;;;;2.33;1.35;;;22.10;35.80;;;;;;5061092;28;20506;-58
2022/11/19 13:27:03;;;;;;;1.48;1.38;;;22.10;35.70;;;;;;5057780;28;20115;-58
2022/11/19 13:29:38;;;;;;;5.13;1.48;;;22.10;35.80;;;;;;5055513;28;20444;-58
2022/11/19 13:32:19;;;;;;;3.20;1.20;;;22.10;35.60;;;;;;5053852;28;20036;-57
2022/11/19 13:35:06;;;;;;;1.80;1.38;;;22.10;35.70;;;;;;5056115;28;20047;-59
2022/11/19 13:37:56;;;;;;;1.95;1.60;;;22.10;35.40;;;;;;5056564;28;20049;-56